sensor_id;sensor_type;location;lat;lon;timestamp;pressure;altitude;pressure_sealevel;temperature;humidity
75072;BME280;63651;55.728;38.022;2022-12-11T00:02:12;98605.56;;;13.78;46.86
75072;BME280;63651;55.728;38.022;2022-12-11T00:07:13;98620.59;;;13.81;46.91
75072;BME280;63651;55.728;38.022;2022-12-11T00:12:14;98624.66;;;13.78;47.03
75072;BME280;63651;55.728;38.022;2022-12-11T00:17:15;98622.25;;;13.82;46.77
75072;BME280;63651;55.728;38.022;2022-12-11T00:22:16;98609.69;;;13.81;46.89
75072;BME280;63651;55.728;38.022;2022-12-11T00:27:18;98600.91;;;13.78;46.67
75072;BME280;63651;55.728;38.022;2022-12-11T00:32:19;98590.31;;;13.82;46.30
75072;BME280;63651;55.728;38.022;2022-12-11T00:37:20;98603.97;;;13.82;46.51
75072;BME280;63651;55.728;38.022;2022-12-11T00:42:21;98601.25;;;13.82;46.27
75072;BME280;63651;55.728;38.022;2022-12-11T00:47:22;98601.25;;;13.82;46.40
75072;BME280;63651;55.728;38.022;2022-12-11T00:52:23;98597.38;;;13.78;46.20
75072;BME280;63651;55.728;38.022;2022-12-11T00:57:24;98617.13;;;13.85;46.20
75072;BME280;63651;55.728;38.022;2022-12-11T01:02:25;98609.44;;;13.82;46.22
75072;BME280;63651;55.728;38.022;2022-12-11T01:07:26;98614.66;;;13.84;45.81
75072;BME280;63651;55.728;38.022;2022-12-11T01:12:27;98615.47;;;13.84;46.20
75072;BME280;63651;55.728;38.022;2022-12-11T01:17:28;98622.59;;;13.85;45.88
75072;BME280;63651;55.728;38.022;2022-12-11T01:22:30;98635.41;;;13.85;46.04
75072;BME280;63651;55.728;38.022;2022-12-11T01:27:31;98624.50;;;13.85;46.08
75072;BME280;63651;55.728;38.022;2022-12-11T01:32:33;98620.44;;;13.87;45.73
75072;BME280;63651;55.728;38.022;2022-12-11T01:37:34;98616.28;;;13.85;45.71
75072;BME280;63651;55.728;38.022;2022-12-11T01:42:36;98617.94;;;13.86;44.92
75072;BME280;63651;55.728;38.022;2022-12-11T01:47:37;98618.78;;;13.86;45.62
75072;BME280;63651;55.728;38.022;2022-12-11T01:52:39;98626.13;;;13.86;45.10
75072;BME280;63651;55.728;38.022;2022-12-11T01:57:42;98582.56;;;13.57;44.43
75072;BME280;63651;55.728;38.022;2022-12-11T02:02:45;98614.66;;;13.84;45.40
75072;BME280;63651;55.728;38.022;2022-12-11T02:07:50;98629.69;;;13.86;44.99
75072;BME280;63651;55.728;38.022;2022-12-11T02:12:59;98636.56;;;13.89;44.06
75072;BME280;63651;55.728;38.022;2022-12-11T02:28:58;98632.69;;;13.85;44.81
75072;BME280;63651;55.728;38.022;2022-12-11T02:34:13;98622.19;;;13.76;44.45
75072;BME280;63651;55.728;38.022;2022-12-11T02:39:19;98643.59;;;13.85;44.88
75072;BME280;63651;55.728;38.022;2022-12-11T02:44:26;98662.13;;;13.83;45.22
75072;BME280;63651;55.728;38.022;2022-12-11T02:49:30;98670.66;;;13.86;44.72
75072;BME280;63651;55.728;38.022;2022-12-11T02:54:36;98671.72;;;13.85;44.97
75072;BME280;63651;55.728;38.022;2022-12-11T02:59:41;98685.13;;;13.87;44.95
75072;BME280;63651;55.728;38.022;2022-12-11T03:04:45;98680.75;;;13.86;44.64
75072;BME280;63651;55.728;38.022;2022-12-11T03:09:47;98677.50;;;13.89;44.58
75072;BME280;63651;55.728;38.022;2022-12-11T03:14:49;98683.38;;;13.81;44.50
75072;BME280;63651;55.728;38.022;2022-12-11T03:25:35;98697.63;;;13.83;44.43
75072;BME280;63651;55.728;38.022;2022-12-11T03:30:41;98708.88;;;13.86;44.06
75072;BME280;63651;55.728;38.022;2022-12-11T03:36:04;98718.38;;;13.84;44.96
75072;BME280;63651;55.728;38.022;2022-12-11T03:41:07;98708.78;;;13.81;44.42
75072;BME280;63651;55.728;38.022;2022-12-11T03:46:11;98715.31;;;13.80;44.67
75072;BME280;63651;55.728;38.022;2022-12-11T03:51:16;98716.13;;;13.81;44.34
75072;BME280;63651;55.728;38.022;2022-12-11T03:56:19;98726.47;;;13.78;44.26
75072;BME280;63651;55.728;38.022;2022-12-11T04:01:21;98730.94;;;13.85;44.63
75072;BME280;63651;55.728;38.022;2022-12-11T04:06:22;98740.22;;;13.84;44.12
75072;BME280;63651;55.728;38.022;2022-12-11T04:11:24;98733.84;;;13.78;44.28
75072;BME280;63651;55.728;38.022;2022-12-11T04:16:34;98761.47;;;13.82;44.17
75072;BME280;63651;55.728;38.022;2022-12-11T04:21:35;98754.34;;;13.81;44.33
75072;BME280;63651;55.728;38.022;2022-12-11T04:26:54;98759.56;;;13.82;43.84
75072;BME280;63651;55.728;38.022;2022-12-11T04:31:56;98748.56;;;13.77;44.07
75072;BME280;63651;55.728;38.022;2022-12-11T04:36:57;98750.47;;;13.76;43.78
75072;BME280;63651;55.728;38.022;2022-12-11T04:41:58;98767.41;;;13.78;43.50
75072;BME280;63651;55.728;38.022;2022-12-11T04:46:59;98769.81;;;13.75;43.87
75072;BME280;63651;55.728;38.022;2022-12-11T04:52:00;98773.72;;;13.79;43.64
75072;BME280;63651;55.728;38.022;2022-12-11T04:57:01;98768.50;;;13.77;43.71
75072;BME280;63651;55.728;38.022;2022-12-11T05:02:03;98773.13;;;13.77;44.04
75072;BME280;63651;55.728;38.022;2022-12-11T05:07:06;98770.97;;;13.79;44.17
75072;BME280;63651;55.728;38.022;2022-12-11T05:12:09;98774.78;;;13.78;43.72
75072;BME280;63651;55.728;38.022;2022-12-11T05:17:10;98768.50;;;13.77;44.05
75072;BME280;63651;55.728;38.022;2022-12-11T05:22:11;98775.94;;;13.82;43.31
75072;BME280;63651;55.728;38.022;2022-12-11T05:27:12;98783.72;;;13.73;43.82
75072;BME280;63651;55.728;38.022;2022-12-11T05:32:13;98790.81;;;13.74;43.38
75072;BME280;63651;55.728;38.022;2022-12-11T05:37:15;98792.22;;;13.77;43.42
75072;BME280;63651;55.728;38.022;2022-12-11T05:42:16;98806.13;;;13.75;43.34
75072;BME280;63651;55.728;38.022;2022-12-11T05:47:17;98826.06;;;13.76;43.79
75072;BME280;63651;55.728;38.022;2022-12-11T05:52:20;98833.06;;;13.72;43.45
75072;BME280;63651;55.728;38.022;2022-12-11T05:57:21;98839.13;;;13.74;43.02
75072;BME280;63651;55.728;38.022;2022-12-11T06:02:22;98856.91;;;13.76;43.34
75072;BME280;63651;55.728;38.022;2022-12-11T06:07:23;98869.50;;;13.77;43.51
75072;BME280;63651;55.728;38.022;2022-12-11T06:12:24;98887.63;;;13.84;43.29
75072;BME280;63651;55.728;38.022;2022-12-11T06:17:25;98894.53;;;13.74;43.58
75072;BME280;63651;55.728;38.022;2022-12-11T06:22:27;98912.09;;;13.78;42.15
75072;BME280;63651;55.728;38.022;2022-12-11T06:27:28;98913.63;;;13.86;43.14
75072;BME280;63651;55.728;38.022;2022-12-11T06:32:29;98919.06;;;13.86;42.87
75072;BME280;63651;55.728;38.022;2022-12-11T06:37:30;98919.66;;;13.88;42.71
75072;BME280;63651;55.728;38.022;2022-12-11T06:42:31;98911.81;;;13.92;42.78
75072;BME280;63651;55.728;38.022;2022-12-11T06:47:32;98916.06;;;13.99;42.47
75072;BME280;63651;55.728;38.022;2022-12-11T06:52:33;98920.66;;;14.10;42.71
75072;BME280;63651;55.728;38.022;2022-12-11T06:57:34;98924.88;;;14.18;41.93
75072;BME280;63651;55.728;38.022;2022-12-11T07:02:36;98924.66;;;14.20;42.30
75072;BME280;63651;55.728;38.022;2022-12-11T07:07:37;98923.19;;;14.29;42.00
75072;BME280;63651;55.728;38.022;2022-12-11T07:12:38;98918.19;;;14.37;41.58
75072;BME280;63651;55.728;38.022;2022-12-11T07:17:40;98927.78;;;14.40;41.56
75072;BME280;63651;55.728;38.022;2022-12-11T07:22:41;98939.03;;;14.55;41.27
75072;BME280;63651;55.728;38.022;2022-12-11T07:27:42;98967.19;;;14.56;41.28
75072;BME280;63651;55.728;38.022;2022-12-11T07:32:43;98968.34;;;14.60;41.21
75072;BME280;63651;55.728;38.022;2022-12-11T07:37:44;98950.38;;;14.64;40.70
75072;BME280;63651;55.728;38.022;2022-12-11T07:42:45;98968.19;;;14.66;40.88
75072;BME280;63651;55.728;38.022;2022-12-11T07:47:46;98966.28;;;14.67;40.65
75072;BME280;63651;55.728;38.022;2022-12-11T07:52:47;98962.00;;;14.71;40.36
75072;BME280;63651;55.728;38.022;2022-12-11T07:57:49;98966.72;;;14.76;39.74
75072;BME280;63651;55.728;38.022;2022-12-11T08:02:50;98959.91;;;14.78;39.80
75072;BME280;63651;55.728;38.022;2022-12-11T08:07:51;98940.19;;;14.76;40.20
75072;BME280;63651;55.728;38.022;2022-12-11T08:12:52;98987.69;;;15.03;40.58
75072;BME280;63651;55.728;38.022;2022-12-11T08:17:54;98995.47;;;14.95;40.42
75072;BME280;63651;55.728;38.022;2022-12-11T08:22:55;98988.28;;;15.05;40.17
75072;BME280;63651;55.728;38.022;2022-12-11T08:27:56;98978.09;;;15.01;40.44
75072;BME280;63651;55.728;38.022;2022-12-11T08:32:57;98977.34;;;15.05;40.56
75072;BME280;63651;55.728;38.022;2022-12-11T08:37:59;98985.88;;;15.09;39.52
75072;BME280;63651;55.728;38.022;2022-12-11T08:43:00;98990.53;;;15.09;39.18
75072;BME280;63651;55.728;38.022;2022-12-11T08:48:01;99002.53;;;15.08;39.39
75072;BME280;63651;55.728;38.022;2022-12-11T08:53:03;99003.88;;;15.05;39.61
75072;BME280;63651;55.728;38.022;2022-12-11T08:58:04;99006.00;;;15.87;39.26
75072;BME280;63651;55.728;38.022;2022-12-11T09:03:05;99018.63;;;15.37;40.57
75072;BME280;63651;55.728;38.022;2022-12-11T09:08:06;99032.31;;;15.21;39.81
75072;BME280;63651;55.728;38.022;2022-12-11T09:13:07;99038.28;;;15.18;40.57
75072;BME280;63651;55.728;38.022;2022-12-11T09:18:08;99026.75;;;15.16;40.57
75072;BME280;63651;55.728;38.022;2022-12-11T09:23:09;99033.28;;;15.15;40.67
75072;BME280;63651;55.728;38.022;2022-12-11T09:28:11;99033.28;;;15.15;40.88
75072;BME280;63651;55.728;38.022;2022-12-11T09:33:12;99047.22;;;15.13;40.70
75072;BME280;63651;55.728;38.022;2022-12-11T09:38:13;99061.72;;;15.14;41.15
75072;BME280;63651;55.728;38.022;2022-12-11T09:48:19;99062.72;;;15.08;40.55
75072;BME280;63651;55.728;38.022;2022-12-11T09:53:34;99065.53;;;14.96;40.66
75072;BME280;63651;55.728;38.022;2022-12-11T10:04:11;99070.25;;;15.00;40.41
75072;BME280;63651;55.728;38.022;2022-12-11T10:20:31;99071.81;;;14.96;40.35
75072;BME280;63651;55.728;38.022;2022-12-11T10:25:40;99076.72;;;14.94;40.40
75072;BME280;63651;55.728;38.022;2022-12-11T10:31:19;99079.34;;;14.89;40.25
75072;BME280;63651;55.728;38.022;2022-12-11T10:36:36;99058.06;;;14.91;40.20
75072;BME280;63651;55.728;38.022;2022-12-11T10:41:40;99061.53;;;14.87;40.20
75072;BME280;63651;55.728;38.022;2022-12-11T10:46:42;99066.06;;;14.81;40.53
75072;BME280;63651;55.728;38.022;2022-12-11T10:51:43;99080.56;;;14.82;40.57
75072;BME280;63651;55.728;38.022;2022-12-11T10:56:46;99079.88;;;17.40;38.28
75072;BME280;63651;55.728;38.022;2022-12-11T11:01:48;99072.94;;;18.01;36.95
75072;BME280;63651;55.728;38.022;2022-12-11T11:07:01;99058.22;;;17.75;36.24
75072;BME280;63651;55.728;38.022;2022-12-11T11:12:02;99060.50;;;16.71;38.48
75072;BME280;63651;55.728;38.022;2022-12-11T11:17:03;99067.88;;;16.26;39.57
75072;BME280;63651;55.728;38.022;2022-12-11T11:22:07;99070.59;;;16.05;40.45
75072;BME280;63651;55.728;38.022;2022-12-11T11:27:27;99062.44;;;15.88;41.44
75072;BME280;63651;55.728;38.022;2022-12-11T11:32:35;99058.81;;;15.65;39.69
75072;BME280;63651;55.728;38.022;2022-12-11T11:37:40;99056.69;;;15.56;39.61
75072;BME280;63651;55.728;38.022;2022-12-11T11:42:48;99065.31;;;15.48;39.04
75072;BME280;63651;55.728;38.022;2022-12-11T11:53:32;99060.91;;;15.30;38.14
75072;BME280;63651;55.728;38.022;2022-12-11T12:04:04;99061.97;;;15.12;36.55
75072;BME280;63651;55.728;38.022;2022-12-11T12:09:28;99068.09;;;15.02;36.52
75072;BME280;63651;55.728;38.022;2022-12-11T12:25:43;99072.75;;;14.73;36.81
75072;BME280;63651;55.728;38.022;2022-12-11T12:52:02;99082.56;;;15.31;42.58
75072;BME280;63651;55.728;38.022;2022-12-11T12:57:05;99081.69;;;14.97;46.62
75072;BME280;63651;55.728;38.022;2022-12-11T13:02:12;99081.41;;;14.82;47.59
75072;BME280;63651;55.728;38.022;2022-12-11T13:07:20;99083.34;;;14.70;47.10
75072;BME280;63651;55.728;38.022;2022-12-11T13:12:40;99072.81;;;14.62;48.74
75072;BME280;63651;55.728;38.022;2022-12-11T13:17:42;99070.22;;;14.55;48.92
75072;BME280;63651;55.728;38.022;2022-12-11T13:22:53;99061.91;;;14.50;49.01
75072;BME280;63651;55.728;38.022;2022-12-11T13:28:29;99053.03;;;14.43;47.87
75072;BME280;63651;55.728;38.022;2022-12-11T13:33:32;99058.50;;;14.43;49.02
75072;BME280;63651;55.728;38.022;2022-12-11T13:38:45;99053.47;;;14.40;49.32
75072;BME280;63651;55.728;38.022;2022-12-11T13:43:48;99037.22;;;14.33;49.06
75072;BME280;63651;55.728;38.022;2022-12-11T13:48:55;99022.97;;;14.31;52.57
75072;BME280;63651;55.728;38.022;2022-12-11T13:54:22;99040.84;;;12.87;55.07
75072;BME280;63651;55.728;38.022;2022-12-11T14:04:29;99033.28;;;13.42;46.42
75072;BME280;63651;55.728;38.022;2022-12-11T14:09:31;99021.28;;;13.32;46.59
75072;BME280;63651;55.728;38.022;2022-12-11T14:14:44;99035.28;;;13.24;46.85
75072;BME280;63651;55.728;38.022;2022-12-11T14:19:47;99011.16;;;13.09;47.59
75072;BME280;63651;55.728;38.022;2022-12-11T14:25:01;98999.06;;;13.05;47.91
75072;BME280;63651;55.728;38.022;2022-12-11T14:30:10;98999.97;;;12.99;47.95
75072;BME280;63651;55.728;38.022;2022-12-11T14:35:42;99002.69;;;12.87;50.20
75072;BME280;63651;55.728;38.022;2022-12-11T14:40:47;99006.34;;;12.81;50.16
75072;BME280;63651;55.728;38.022;2022-12-11T14:45:54;99019.72;;;12.82;50.55
75072;BME280;63651;55.728;38.022;2022-12-11T14:50:59;99019.38;;;12.79;50.41
75072;BME280;63651;55.728;38.022;2022-12-11T14:56:06;98994.00;;;12.78;49.70
75072;BME280;63651;55.728;38.022;2022-12-11T15:01:29;98992.38;;;12.89;52.36
75072;BME280;63651;55.728;38.022;2022-12-11T15:06:41;98988.88;;;13.12;49.13
75072;BME280;63651;55.728;38.022;2022-12-11T15:11:43;99016.56;;;13.27;49.43
75072;BME280;63651;55.728;38.022;2022-12-11T15:16:47;98991.66;;;13.35;48.87
75072;BME280;63651;55.728;38.022;2022-12-11T15:21:49;98961.88;;;13.34;49.92
75072;BME280;63651;55.728;38.022;2022-12-11T15:26:51;98963.66;;;13.40;49.18
75072;BME280;63651;55.728;38.022;2022-12-11T15:37:28;98922.13;;;13.50;47.94
75072;BME280;63651;55.728;38.022;2022-12-11T15:42:41;98875.41;;;13.34;50.50
75072;BME280;63651;55.728;38.022;2022-12-11T15:47:43;98877.31;;;13.34;49.73
75072;BME280;63651;55.728;38.022;2022-12-11T15:52:44;98891.53;;;13.36;47.92
75072;BME280;63651;55.728;38.022;2022-12-11T15:57:49;98902.78;;;13.51;47.74
75072;BME280;63651;55.728;38.022;2022-12-11T16:02:52;98906.00;;;13.48;47.07
75072;BME280;63651;55.728;38.022;2022-12-11T16:07:53;98917.16;;;13.47;47.40
75072;BME280;63651;55.728;38.022;2022-12-11T16:12:56;98907.78;;;13.42;48.58
75072;BME280;63651;55.728;38.022;2022-12-11T16:18:08;98881.72;;;13.35;48.46
75072;BME280;63651;55.728;38.022;2022-12-11T16:23:11;98858.56;;;13.37;48.29
75072;BME280;63651;55.728;38.022;2022-12-11T16:28:14;98851.34;;;13.31;47.09
75072;BME280;63651;55.728;38.022;2022-12-11T16:33:16;98850.75;;;13.29;47.35
75072;BME280;63651;55.728;38.022;2022-12-11T16:38:17;98841.28;;;13.20;47.76
75072;BME280;63651;55.728;38.022;2022-12-11T16:43:18;98851.84;;;13.28;48.21
75072;BME280;63651;55.728;38.022;2022-12-11T16:48:19;98843.16;;;13.31;48.85
75072;BME280;63651;55.728;38.022;2022-12-11T16:53:21;98858.22;;;13.34;47.57
75072;BME280;63651;55.728;38.022;2022-12-11T16:58:22;98858.13;;;13.29;47.46
75072;BME280;63651;55.728;38.022;2022-12-11T17:03:23;98834.16;;;13.31;46.50
75072;BME280;63651;55.728;38.022;2022-12-11T17:08:24;98824.19;;;13.36;46.35
75072;BME280;63651;55.728;38.022;2022-12-11T17:13:25;98813.28;;;13.36;46.95
75072;BME280;63651;55.728;38.022;2022-12-11T17:18:26;98801.91;;;13.28;47.54
75072;BME280;63651;55.728;38.022;2022-12-11T17:23:28;98784.22;;;13.30;45.87
75072;BME280;63651;55.728;38.022;2022-12-11T17:28:29;98777.03;;;13.24;46.29
75072;BME280;63651;55.728;38.022;2022-12-11T17:33:30;98758.63;;;13.31;45.84
75072;BME280;63651;55.728;38.022;2022-12-11T17:38:32;98748.19;;;13.28;46.62
75072;BME280;63651;55.728;38.022;2022-12-11T17:43:34;98738.09;;;13.29;45.39
75072;BME280;63651;55.728;38.022;2022-12-11T17:48:36;98730.75;;;13.29;45.32
75072;BME280;63651;55.728;38.022;2022-12-11T17:53:37;98728.50;;;13.26;46.49
75072;BME280;63651;55.728;38.022;2022-12-11T17:58:38;98712.16;;;13.26;47.34
75072;BME280;63651;55.728;38.022;2022-12-11T18:03:40;98706.31;;;13.34;45.57
75072;BME280;63651;55.728;38.022;2022-12-11T18:08:41;98698.94;;;13.35;46.75
75072;BME280;63651;55.728;38.022;2022-12-11T18:13:44;98701.19;;;13.38;44.80
75072;BME280;63651;55.728;38.022;2022-12-11T18:18:46;98715.25;;;13.47;44.39
75072;BME280;63651;55.728;38.022;2022-12-11T18:23:48;98660.69;;;13.47;45.19
75072;BME280;63651;55.728;38.022;2022-12-11T18:28:50;98675.72;;;13.32;46.47
75072;BME280;63651;55.728;38.022;2022-12-11T18:33:51;98663.41;;;13.30;45.79
75072;BME280;63651;55.728;38.022;2022-12-11T18:38:53;98655.94;;;13.25;46.88
75072;BME280;63651;55.728;38.022;2022-12-11T18:43:54;98636.94;;;13.30;44.85
75072;BME280;63651;55.728;38.022;2022-12-11T18:48:56;98647.22;;;13.40;45.44
75072;BME280;63651;55.728;38.022;2022-12-11T18:53:57;98706.63;;;13.38;46.17
75072;BME280;63651;55.728;38.022;2022-12-11T18:58:58;98709.03;;;13.34;45.58
75072;BME280;63651;55.728;38.022;2022-12-11T19:04:00;98717.69;;;13.31;45.42
75072;BME280;63651;55.728;38.022;2022-12-11T19:09:05;98701.78;;;13.40;44.16
75072;BME280;63651;55.728;38.022;2022-12-11T19:14:07;98688.56;;;13.49;44.32
75072;BME280;63651;55.728;38.022;2022-12-11T19:19:12;98679.47;;;13.60;44.55
75072;BME280;63651;55.728;38.022;2022-12-11T19:24:17;98667.25;;;13.62;44.73
75072;BME280;63651;55.728;38.022;2022-12-11T19:29:23;98649.22;;;13.61;44.66
75072;BME280;63651;55.728;38.022;2022-12-11T19:34:24;98657.56;;;13.71;47.13
75072;BME280;63651;55.728;38.022;2022-12-11T19:39:25;98665.09;;;13.48;47.59
75072;BME280;63651;55.728;38.022;2022-12-11T19:44:26;98659.03;;;13.45;46.00
75072;BME280;63651;55.728;38.022;2022-12-11T19:49:28;98656.56;;;13.44;46.74
75072;BME280;63651;55.728;38.022;2022-12-11T19:54:30;98644.56;;;13.28;47.68
75072;BME280;63651;55.728;38.022;2022-12-11T19:59:32;98637.22;;;13.45;46.36
75072;BME280;63651;55.728;38.022;2022-12-11T20:04:33;98631.25;;;13.32;47.59
75072;BME280;63651;55.728;38.022;2022-12-11T20:09:34;98639.59;;;13.25;47.35
75072;BME280;63651;55.728;38.022;2022-12-11T20:14:36;98624.81;;;13.38;46.43
75072;BME280;63651;55.728;38.022;2022-12-11T20:19:38;98622.91;;;13.38;46.81
75072;BME280;63651;55.728;38.022;2022-12-11T20:24:39;98628.78;;;13.30;45.67
75072;BME280;63651;55.728;38.022;2022-12-11T20:29:41;98611.34;;;13.31;45.84
75072;BME280;63651;55.728;38.022;2022-12-11T20:34:42;98613.81;;;13.33;48.18
75072;BME280;63651;55.728;38.022;2022-12-11T20:39:43;98598.59;;;13.20;48.00
75072;BME280;63651;55.728;38.022;2022-12-11T20:44:44;98592.81;;;13.17;46.48
75072;BME280;63651;55.728;38.022;2022-12-11T20:49:47;98571.66;;;13.24;46.64
75072;BME280;63651;55.728;38.022;2022-12-11T20:54:49;98572.91;;;13.33;46.06
75072;BME280;63651;55.728;38.022;2022-12-11T20:59:50;98558.09;;;13.29;45.49
75072;BME280;63651;55.728;38.022;2022-12-11T21:04:51;98545.63;;;13.33;46.65
75072;BME280;63651;55.728;38.022;2022-12-11T21:09:52;98539.69;;;13.36;45.79
75072;BME280;63651;55.728;38.022;2022-12-11T21:14:53;98529.66;;;13.41;45.74
75072;BME280;63651;55.728;38.022;2022-12-11T21:19:54;98526.19;;;13.46;45.58
75072;BME280;63651;55.728;38.022;2022-12-11T21:24:56;98512.97;;;13.38;46.69
75072;BME280;63651;55.728;38.022;2022-12-11T21:29:57;98507.78;;;13.36;47.50
75072;BME280;63651;55.728;38.022;2022-12-11T21:34:58;98506.28;;;13.45;45.62
75072;BME280;63651;55.728;38.022;2022-12-11T21:39:59;98490.81;;;13.51;45.77
75072;BME280;63651;55.728;38.022;2022-12-11T21:45:00;98484.84;;;13.54;44.94
75072;BME280;63651;55.728;38.022;2022-12-11T21:50:03;98476.44;;;13.39;46.58
75072;BME280;63651;55.728;38.022;2022-12-11T21:55:04;98469.72;;;13.47;46.06
75072;BME280;63651;55.728;38.022;2022-12-11T22:00:06;98459.50;;;13.37;46.68
75072;BME280;63651;55.728;38.022;2022-12-11T22:05:09;98454.22;;;13.30;46.09
75072;BME280;63651;55.728;38.022;2022-12-11T22:10:10;98441.63;;;13.46;45.50
75072;BME280;63651;55.728;38.022;2022-12-11T22:15:11;98440.22;;;13.43;45.43
75072;BME280;63651;55.728;38.022;2022-12-11T22:20:12;98422.72;;;13.39;46.30
75072;BME280;63651;55.728;38.022;2022-12-11T22:25:14;98410.34;;;13.32;47.12
75072;BME280;63651;55.728;38.022;2022-12-11T22:30:15;98407.41;;;13.38;47.25
75072;BME280;63651;55.728;38.022;2022-12-11T22:35:16;98398.28;;;13.28;46.63
75072;BME280;63651;55.728;38.022;2022-12-11T22:40:18;98389.50;;;13.26;47.25
75072;BME280;63651;55.728;38.022;2022-12-11T22:45:19;98372.47;;;13.35;47.54
75072;BME280;63651;55.728;38.022;2022-12-11T22:50:20;98360.16;;;13.33;45.40
75072;BME280;63651;55.728;38.022;2022-12-11T22:55:22;98354.72;;;13.33;46.08
75072;BME280;63651;55.728;38.022;2022-12-11T23:00:23;98328.94;;;13.24;46.71
75072;BME280;63651;55.728;38.022;2022-12-11T23:05:24;98334.59;;;13.39;45.37
75072;BME280;63651;55.728;38.022;2022-12-11T23:10:25;98326.41;;;13.39;45.30
75072;BME280;63651;55.728;38.022;2022-12-11T23:15:26;98322.63;;;13.40;45.44
75072;BME280;63651;55.728;38.022;2022-12-11T23:20:28;98283.84;;;13.38;44.64
75072;BME280;63651;55.728;38.022;2022-12-11T23:25:29;98288.38;;;13.27;45.49
75072;BME280;63651;55.728;38.022;2022-12-11T23:30:30;98293.13;;;13.37;45.61
75072;BME280;63651;55.728;38.022;2022-12-11T23:35:31;98274.59;;;13.39;44.63
75072;BME280;63651;55.728;38.022;2022-12-11T23:40:34;98252.22;;;13.37;45.70
75072;BME280;63651;55.728;38.022;2022-12-11T23:45:35;98240.72;;;13.35;45.38
75072;BME280;63651;55.728;38.022;2022-12-11T23:50:36;98239.91;;;13.34;45.52
75072;BME280;63651;55.728;38.022;2022-12-11T23:55:42;98235.78;;;13.32;45.31
